createdAt,value
2019-05-26T00:00:07.637Z,99.90
2019-05-26T00:02:36.049Z,99.90
2019-05-26T00:05:08.683Z,99.90
2019-05-26T00:07:37.081Z,99.90
2019-05-26T00:10:07.233Z,99.90
2019-05-26T00:12:35.697Z,99.90
2019-05-26T00:15:05.572Z,99.90
2019-05-26T00:17:33.994Z,99.90
2019-05-26T00:20:02.475Z,99.90
2019-05-26T00:22:31.130Z,99.90
2019-05-26T00:24:59.765Z,99.90
2019-05-26T00:27:28.159Z,99.90
2019-05-26T00:29:56.548Z,99.90
2019-05-26T00:32:25.255Z,99.90
2019-05-26T00:34:55.379Z,99.90
2019-05-26T00:37:24.009Z,99.90
2019-05-26T00:39:52.406Z,99.90
2019-05-26T00:42:20.838Z,99.90
2019-05-26T00:44:49.217Z,99.90
2019-05-26T00:47:17.629Z,99.90
2019-05-26T00:49:46.040Z,99.90
2019-05-26T00:52:14.426Z,99.90
2019-05-26T00:54:42.825Z,99.90
2019-05-26T00:57:11.221Z,99.90
2019-05-26T00:59:39.698Z,99.90
2019-05-26T01:02:08.351Z,99.90
2019-05-26T01:04:36.733Z,99.90
2019-05-26T01:07:05.453Z,99.90
2019-05-26T01:09:33.979Z,99.90
2019-05-26T01:12:02.448Z,99.90
2019-05-26T01:14:30.910Z,99.90
2019-05-26T01:16:59.311Z,99.90
2019-05-26T01:19:27.739Z,99.90
2019-05-26T01:21:56.166Z,99.90
2019-05-26T01:24:24.557Z,99.90
2019-05-26T01:26:53.182Z,99.90
2019-05-26T01:29:21.634Z,99.90
2019-05-26T01:31:50.354Z,99.90
2019-05-26T01:34:19.002Z,99.90
2019-05-26T01:36:47.574Z,99.90
2019-05-26T01:39:16.417Z,99.90
2019-05-26T01:41:44.874Z,99.90
2019-05-26T01:44:13.531Z,99.90
2019-05-26T01:46:41.922Z,99.90
2019-05-26T01:49:10.325Z,99.90
2019-05-26T01:51:38.720Z,99.90
2019-05-26T01:54:10.143Z,99.90
2019-05-26T01:56:38.803Z,99.90
2019-05-26T01:59:07.260Z,99.90
2019-05-26T02:01:35.646Z,99.90
2019-05-26T02:04:05.698Z,99.90
2019-05-26T02:06:34.163Z,99.90
2019-05-26T02:09:04.226Z,99.90
2019-05-26T02:11:32.690Z,99.90
2019-05-26T02:14:01.089Z,99.90
2019-05-26T02:16:29.498Z,99.90
2019-05-26T02:18:57.906Z,99.90
2019-05-26T02:21:26.293Z,99.90
2019-05-26T02:23:54.769Z,99.90
2019-05-26T02:26:23.210Z,99.90
2019-05-26T02:28:51.910Z,99.90
2019-05-26T02:31:20.377Z,99.90
2019-05-26T02:33:48.770Z,99.90
2019-05-26T02:36:17.183Z,99.90
2019-05-26T02:39:00.926Z,99.90
2019-05-26T02:41:15.949Z,99.90
2019-05-26T02:43:44.331Z,99.90
2019-05-26T02:46:12.718Z,99.90
2019-05-26T02:48:41.111Z,99.90
2019-05-26T02:51:09.512Z,99.90
2019-05-26T02:53:37.918Z,99.90
2019-05-26T02:56:06.392Z,99.90
2019-05-26T02:58:34.802Z,99.90
2019-05-26T03:01:03.640Z,99.90
2019-05-26T03:03:32.370Z,99.90
2019-05-26T03:06:01.473Z,99.90
2019-05-26T03:08:30.465Z,99.90
2019-05-26T03:11:00.178Z,99.90
2019-05-26T03:13:31.096Z,99.90
2019-05-26T03:16:02.056Z,99.90
2019-05-26T03:18:32.555Z,99.90
2019-05-26T03:21:03.480Z,99.90
2019-05-26T03:23:32.547Z,99.90
2019-05-26T03:26:01.551Z,99.90
2019-05-26T03:28:29.936Z,99.90
2019-05-26T03:30:58.365Z,99.90
2019-05-26T03:33:26.883Z,99.90
2019-05-26T03:35:55.291Z,99.90
2019-05-26T03:38:23.759Z,99.90
2019-05-26T03:40:52.222Z,99.90
2019-05-26T03:43:20.695Z,99.90
2019-05-26T03:46:10.116Z,99.90
2019-05-26T03:48:38.512Z,99.90
2019-05-26T03:51:06.910Z,99.90
2019-05-26T03:53:35.308Z,99.90
2019-05-26T03:56:03.703Z,99.90
2019-05-26T03:58:32.114Z,99.90
2019-05-26T04:01:00.553Z,99.90
2019-05-26T04:03:29.229Z,99.90
2019-05-26T04:05:57.676Z,99.90
2019-05-26T04:08:26.071Z,99.90
2019-05-26T04:10:54.476Z,99.90
2019-05-26T04:13:22.870Z,99.90
2019-05-26T04:15:51.276Z,99.90
2019-05-26T04:18:19.669Z,99.90
2019-05-26T04:20:48.067Z,99.90
2019-05-26T04:23:16.467Z,99.90
2019-05-26T04:25:44.855Z,99.90
2019-05-26T04:28:13.328Z,99.90
2019-05-26T04:30:41.826Z,99.90
2019-05-26T04:33:10.199Z,99.90
2019-05-26T04:35:38.686Z,99.90
2019-05-26T04:38:07.054Z,99.90
2019-05-26T04:40:35.980Z,99.90
2019-05-26T04:43:04.807Z,99.90
2019-05-26T04:45:33.197Z,99.90
2019-05-26T04:48:01.590Z,99.90
2019-05-26T04:50:29.985Z,99.90
2019-05-26T04:53:06.213Z,99.90
2019-05-26T04:55:28.879Z,99.90
2019-05-26T04:57:57.279Z,99.90
2019-05-26T05:00:25.737Z,99.90
2019-05-26T05:02:54.136Z,99.90
2019-05-26T05:05:22.549Z,99.90
2019-05-26T05:07:50.940Z,99.90
2019-05-26T05:10:19.358Z,99.90
2019-05-26T05:12:47.753Z,99.90
2019-05-26T05:15:17.096Z,99.90
2019-05-26T05:17:45.506Z,99.90
2019-05-26T05:20:14.673Z,99.90
2019-05-26T05:22:43.082Z,99.90
2019-05-26T05:25:14.992Z,99.90
2019-05-26T05:27:41.765Z,99.90
2019-05-26T05:30:11.142Z,99.90
2019-05-26T05:32:39.538Z,99.90
2019-05-26T05:35:08.902Z,99.90
2019-05-26T05:37:37.363Z,99.90
2019-05-26T05:40:07.103Z,99.90
2019-05-26T05:42:35.507Z,99.90
2019-05-26T05:45:05.643Z,99.90
2019-05-26T05:47:34.278Z,99.90
2019-05-26T05:50:03.150Z,99.90
2019-05-26T05:52:31.557Z,99.90
2019-05-26T05:54:59.957Z,99.90
2019-05-26T05:57:28.606Z,99.90
2019-05-26T05:59:57.023Z,99.90
2019-05-26T06:02:25.431Z,99.90
2019-05-26T06:04:53.830Z,99.90
2019-05-26T06:07:22.470Z,99.90
2019-05-26T06:09:51.376Z,99.90
2019-05-26T06:12:19.761Z,99.90
2019-05-26T06:14:48.174Z,99.90
2019-05-26T06:17:16.587Z,99.90
2019-05-26T06:19:45.078Z,99.90
2019-05-26T06:22:13.526Z,99.90
2019-05-26T06:24:41.922Z,99.90
2019-05-26T06:27:10.314Z,99.90
2019-05-26T06:29:38.713Z,99.90
2019-05-26T06:32:07.395Z,99.90
2019-05-26T06:34:35.989Z,99.90
2019-05-26T06:37:04.387Z,99.90
2019-05-26T06:39:32.802Z,99.90
2019-05-26T06:42:01.202Z,99.90
2019-05-26T06:44:29.639Z,99.90
2019-05-26T06:46:58.078Z,99.90
2019-05-26T06:49:26.565Z,99.90
2019-05-26T06:51:55.199Z,99.90
2019-05-26T06:54:23.602Z,99.90
2019-05-26T06:56:52.015Z,99.90
2019-05-26T06:59:20.409Z,99.90
2019-05-26T07:01:48.807Z,99.90
2019-05-26T07:04:17.202Z,99.90
2019-05-26T07:06:45.605Z,99.90
2019-05-26T07:09:14.003Z,99.90
2019-05-26T07:11:55.537Z,99.90
2019-05-26T07:14:12.759Z,99.90
2019-05-26T07:16:41.401Z,99.90
2019-05-26T07:19:09.863Z,99.90
2019-05-26T07:21:38.498Z,99.90
2019-05-26T07:24:06.905Z,97.90
2019-05-26T07:26:35.311Z,97.70
2019-05-26T07:29:03.714Z,94.60
2019-05-26T07:31:32.118Z,92.60
2019-05-26T07:34:00.527Z,91.30
2019-05-26T07:36:28.929Z,91.40
2019-05-26T07:38:57.339Z,93.30
2019-05-26T07:41:25.735Z,96.10
2019-05-26T07:43:54.199Z,93.90
2019-05-26T07:46:22.606Z,92.80
2019-05-26T07:48:51.029Z,92.90
2019-05-26T07:51:19.484Z,92.50
2019-05-26T07:53:48.195Z,92.90
2019-05-26T07:56:16.595Z,84.90
2019-05-26T07:58:45.222Z,90.80
2019-05-26T08:01:13.860Z,90.40
2019-05-26T08:03:42.391Z,91.90
2019-05-26T08:06:10.823Z,91.80
2019-05-26T08:08:39.389Z,93.30
2019-05-26T08:11:07.970Z,90.60
2019-05-26T08:13:36.387Z,89.70
2019-05-26T08:16:04.792Z,84.90
2019-05-26T08:18:33.171Z,86.20
2019-05-26T08:21:01.566Z,82.50
2019-05-26T08:23:30.046Z,83.20
2019-05-26T08:25:58.513Z,80.70
2019-05-26T08:28:26.975Z,81.30
2019-05-26T08:30:55.367Z,79.10
2019-05-26T08:33:23.822Z,77.40
2019-05-26T08:35:52.264Z,80.30
2019-05-26T08:38:20.682Z,78.90
2019-05-26T08:40:49.078Z,77.20
2019-05-26T08:43:17.752Z,78.20
2019-05-26T08:45:46.152Z,74.60
2019-05-26T08:48:14.785Z,74.00
2019-05-26T08:50:43.184Z,74.90
2019-05-26T08:53:11.594Z,70.60
2019-05-26T08:55:40.010Z,73.60
2019-05-26T08:58:08.642Z,70.90
2019-05-26T09:00:37.058Z,74.70
2019-05-26T09:03:05.470Z,79.40
2019-05-26T09:05:33.911Z,70.30
2019-05-26T09:08:02.594Z,72.80
2019-05-26T09:10:31.014Z,71.50
2019-05-26T09:13:01.276Z,67.70
2019-05-26T09:15:29.577Z,70.80
2019-05-26T09:17:57.983Z,72.70
2019-05-26T09:20:26.549Z,69.70
2019-05-26T09:22:54.931Z,70.00
2019-05-26T09:25:23.405Z,68.20
2019-05-26T09:27:51.808Z,68.10
2019-05-26T09:30:20.498Z,64.60
2019-05-26T09:32:49.078Z,58.00
2019-05-26T09:35:17.554Z,57.70
2019-05-26T09:37:45.970Z,62.10
2019-05-26T09:40:14.911Z,56.30
2019-05-26T09:42:43.314Z,57.10
2019-05-26T09:45:12.371Z,64.20
2019-05-26T09:47:49.362Z,61.70
2019-05-26T09:50:18.237Z,55.40
2019-05-26T09:52:46.950Z,52.90
2019-05-26T09:55:15.834Z,53.40
2019-05-26T09:57:44.265Z,54.40
2019-05-26T10:00:16.217Z,53.40
2019-05-26T10:02:44.692Z,52.90
2019-05-26T10:05:14.829Z,53.80
2019-05-26T10:07:43.231Z,53.20
2019-05-26T10:10:12.105Z,49.10
2019-05-26T10:12:40.786Z,49.30
2019-05-26T10:15:10.358Z,53.10
2019-05-26T10:17:39.007Z,53.50
2019-05-26T10:20:09.677Z,51.40
2019-05-26T10:22:38.187Z,52.20
2019-05-26T10:25:07.223Z,52.20
2019-05-26T10:27:35.636Z,50.10
2019-05-26T10:30:06.116Z,48.30
2019-05-26T10:32:34.759Z,47.90
2019-05-26T10:35:04.270Z,49.50
2019-05-26T10:37:32.906Z,54.00
2019-05-26T10:40:01.378Z,50.90
2019-05-26T10:42:29.800Z,49.80
2019-05-26T10:44:58.226Z,50.90
2019-05-26T10:47:26.631Z,50.90
2019-05-26T10:49:55.043Z,51.50
2019-05-26T10:52:23.460Z,53.40
2019-05-26T10:54:52.112Z,48.10
2019-05-26T10:57:20.518Z,49.90
2019-05-26T10:59:49.152Z,48.70
2019-05-26T11:02:17.575Z,52.10
2019-05-26T11:04:45.981Z,49.80
2019-05-26T11:07:14.392Z,53.30
2019-05-26T11:09:42.803Z,48.40
2019-05-26T11:12:11.193Z,50.80
2019-05-26T11:14:39.849Z,51.10
2019-05-26T11:17:08.250Z,50.30
2019-05-26T11:19:36.887Z,50.50
2019-05-26T11:22:05.385Z,51.70
2019-05-26T11:24:33.804Z,50.40
2019-05-26T11:27:09.593Z,55.10
2019-05-26T11:29:32.451Z,53.20
2019-05-26T11:32:01.127Z,55.60
2019-05-26T11:34:29.831Z,51.70
2019-05-26T11:36:58.238Z,55.50
2019-05-26T11:39:26.930Z,53.20
2019-05-26T11:41:55.365Z,51.50
2019-05-26T11:44:23.738Z,52.30
2019-05-26T11:46:52.144Z,51.00
2019-05-26T11:49:20.552Z,51.20
2019-05-26T11:51:48.950Z,49.90
2019-05-26T11:54:17.355Z,54.40
2019-05-26T11:56:45.746Z,54.50
2019-05-26T11:59:14.146Z,52.80
2019-05-26T12:01:42.556Z,51.30
2019-05-26T12:04:10.954Z,49.20
2019-05-26T12:06:39.370Z,54.50
2019-05-26T12:09:09.015Z,49.00
2019-05-26T12:11:37.412Z,51.80
2019-05-26T12:14:05.878Z,53.50
2019-05-26T12:16:34.517Z,49.40
2019-05-26T12:19:02.920Z,50.70
2019-05-26T12:21:31.629Z,51.10
2019-05-26T12:24:00.037Z,53.90
2019-05-26T12:26:28.434Z,53.70
2019-05-26T12:28:56.842Z,53.10
2019-05-26T12:31:25.242Z,53.30
2019-05-26T12:33:53.645Z,55.90
2019-05-26T12:36:22.046Z,56.90
2019-05-26T12:38:53.166Z,53.40
2019-05-26T12:41:22.002Z,52.80
2019-05-26T12:43:50.398Z,53.00
2019-05-26T12:46:18.795Z,52.60
2019-05-26T12:48:47.222Z,55.40
2019-05-26T12:51:15.696Z,52.60
2019-05-26T12:53:44.100Z,53.10
2019-05-26T12:56:12.500Z,52.80
2019-05-26T12:58:40.941Z,56.10
2019-05-26T13:01:09.571Z,51.90
2019-05-26T13:03:37.989Z,52.70
2019-05-26T13:06:06.831Z,55.80
2019-05-26T13:08:35.219Z,53.70
2019-05-26T13:11:03.787Z,52.90
2019-05-26T13:13:32.183Z,53.80
2019-05-26T13:16:00.845Z,54.70
2019-05-26T13:18:29.265Z,56.00
2019-05-26T13:20:57.684Z,55.60
2019-05-26T13:23:26.325Z,58.30
2019-05-26T13:25:54.730Z,55.00
2019-05-26T13:28:23.126Z,56.70
2019-05-26T13:30:51.525Z,57.00
2019-05-26T13:33:20.160Z,58.20
2019-05-26T13:35:48.575Z,57.60
2019-05-26T13:38:16.970Z,58.90
2019-05-26T13:40:45.367Z,59.40
2019-05-26T13:43:13.783Z,57.90
2019-05-26T13:45:42.174Z,58.30
2019-05-26T13:48:10.813Z,58.10
2019-05-26T13:50:39.230Z,59.00
2019-05-26T13:53:07.811Z,58.70
2019-05-26T13:55:36.474Z,60.10
2019-05-26T13:58:05.389Z,59.80
2019-05-26T14:00:34.037Z,60.00
2019-05-26T14:03:02.499Z,61.70
2019-05-26T14:05:31.153Z,64.30
2019-05-26T14:08:00.176Z,63.50
2019-05-26T14:10:31.832Z,64.30
2019-05-26T14:13:00.474Z,64.60
2019-05-26T14:15:37.261Z,63.70
2019-05-26T14:17:59.737Z,59.30
2019-05-26T14:20:39.487Z,65.50
2019-05-26T14:23:09.062Z,62.20
2019-05-26T14:25:37.907Z,61.70
2019-05-26T14:28:07.538Z,65.00
2019-05-26T14:30:36.511Z,62.60
2019-05-26T14:33:05.091Z,63.70
2019-05-26T14:35:33.489Z,64.00
2019-05-26T14:38:01.902Z,63.10
2019-05-26T14:40:30.523Z,66.60
2019-05-26T14:42:59.178Z,67.80
2019-05-26T14:45:27.566Z,68.20
2019-05-26T14:47:55.966Z,68.10
2019-05-26T14:50:24.627Z,70.70
2019-05-26T14:52:53.027Z,70.80
2019-05-26T14:55:21.672Z,70.60
2019-05-26T14:57:50.090Z,70.50
2019-05-26T15:00:19.701Z,69.40
2019-05-26T15:02:48.103Z,68.10
2019-05-26T15:05:16.965Z,71.60
2019-05-26T15:07:45.373Z,69.50
2019-05-26T15:10:15.403Z,71.60
2019-05-26T15:12:43.818Z,66.70
2019-05-26T15:15:12.889Z,71.80
2019-05-26T15:17:41.550Z,71.30
2019-05-26T15:20:10.436Z,71.30
2019-05-26T15:22:38.829Z,71.40
2019-05-26T15:25:07.901Z,68.90
2019-05-26T15:27:36.514Z,72.90
2019-05-26T15:30:09.433Z,70.40
2019-05-26T15:32:41.805Z,71.20
2019-05-26T15:35:15.738Z,68.20
2019-05-26T15:37:44.122Z,71.30
2019-05-26T15:40:13.026Z,74.50
2019-05-26T15:42:41.846Z,73.50
2019-05-26T15:45:10.444Z,72.10
2019-05-26T15:47:41.632Z,71.80
2019-05-26T15:50:13.881Z,73.20
2019-05-26T15:52:42.343Z,76.80
2019-05-26T15:55:13.966Z,73.60
2019-05-26T15:57:48.900Z,73.70
2019-05-26T16:00:18.841Z,77.80
2019-05-26T16:02:47.342Z,79.50
2019-05-26T16:05:16.384Z,79.60
2019-05-26T16:07:48.120Z,79.50
2019-05-26T16:10:17.030Z,82.60
2019-05-26T16:15:33.117Z,82.00
2019-05-26T16:18:01.595Z,81.80
2019-05-26T16:20:32.087Z,85.50
2019-05-26T16:23:00.542Z,86.70
2019-05-26T16:25:35.431Z,90.10
2019-05-26T16:28:03.918Z,88.60
2019-05-26T16:30:39.285Z,90.60
2019-05-26T16:33:07.734Z,91.60
2019-05-26T16:35:38.847Z,94.40
2019-05-26T16:38:08.814Z,93.20
2019-05-26T16:40:37.480Z,92.70
2019-05-26T16:43:06.151Z,93.90
2019-05-26T16:45:37.059Z,93.10
2019-05-26T16:48:07.826Z,96.10
2019-05-26T16:50:36.275Z,95.90
2019-05-26T16:53:04.837Z,96.40
2019-05-26T16:55:36.167Z,99.70
2019-05-26T16:58:06.749Z,99.90
2019-05-26T17:00:34.940Z,99.90
2019-05-26T17:03:03.806Z,99.60
2019-05-26T17:05:32.256Z,99.90
2019-05-26T17:08:00.654Z,99.90
2019-05-26T17:10:29.361Z,99.90
2019-05-26T17:12:58.094Z,99.90
2019-05-26T17:15:26.877Z,99.90
2019-05-26T17:17:55.285Z,99.90
2019-05-26T17:20:23.769Z,99.90
2019-05-26T17:22:52.442Z,99.90
2019-05-26T17:25:20.947Z,99.90
2019-05-26T17:27:49.397Z,99.90
2019-05-26T17:30:21.980Z,99.90
2019-05-26T17:32:48.722Z,99.90
2019-05-26T17:35:19.616Z,99.90
2019-05-26T17:37:51.046Z,99.90
2019-05-26T17:40:26.591Z,99.90
2019-05-26T17:42:52.834Z,99.90
2019-05-26T17:45:27.187Z,99.90
2019-05-26T17:47:55.678Z,99.90
2019-05-26T17:50:24.192Z,99.90
2019-05-26T17:52:52.641Z,99.90
2019-05-26T17:55:21.950Z,99.90
2019-05-26T17:57:50.406Z,99.90
2019-05-26T18:00:19.105Z,99.90
2019-05-26T18:02:47.633Z,99.90
2019-05-26T18:05:16.713Z,99.90
2019-05-26T18:07:45.147Z,99.90
2019-05-26T18:10:14.111Z,99.90
2019-05-26T18:12:42.564Z,99.90
2019-05-26T18:15:11.186Z,99.90
2019-05-26T18:17:46.904Z,99.90
2019-05-26T18:20:12.102Z,99.90
2019-05-26T18:22:51.999Z,99.90
2019-05-26T18:25:18.166Z,99.90
2019-05-26T18:30:34.683Z,99.90
2019-05-26T18:33:03.093Z,99.90
2019-05-26T18:35:35.061Z,99.90
2019-05-26T18:38:04.408Z,99.90
2019-05-26T18:40:35.647Z,99.90
2019-05-26T18:43:07.214Z,99.90
2019-05-26T18:45:35.915Z,99.90
2019-05-26T18:48:07.833Z,99.90
2019-05-26T18:50:36.611Z,99.90
2019-05-26T18:53:14.245Z,99.90
2019-05-26T18:55:42.849Z,99.90
2019-05-26T18:58:13.974Z,99.90
2019-05-26T19:00:46.787Z,99.90
2019-05-26T19:03:23.554Z,99.90
2019-05-26T19:05:52.080Z,99.90
2019-05-26T19:08:21.003Z,99.90
2019-05-26T19:10:52.429Z,99.90
2019-05-26T19:13:21.272Z,99.90
2019-05-26T19:15:51.589Z,99.90
2019-05-26T19:18:20.824Z,99.90
2019-05-26T19:23:40.950Z,99.90
2019-05-26T19:26:09.971Z,99.90
2019-05-26T19:28:38.646Z,99.90
2019-05-26T19:31:07.654Z,99.90
2019-05-26T19:33:43.395Z,99.90
2019-05-26T19:36:13.730Z,99.90
2019-05-26T19:38:42.237Z,99.90
2019-05-26T19:41:11.985Z,99.90
2019-05-26T19:43:44.536Z,99.90
2019-05-26T19:46:15.907Z,99.90
2019-05-26T19:48:44.444Z,99.90
2019-05-26T19:51:17.336Z,99.90
2019-05-26T19:56:37.981Z,99.90
2019-05-26T19:59:07.730Z,99.90
2019-05-26T20:01:36.254Z,99.90
2019-05-26T20:04:06.676Z,99.90
2019-05-26T20:06:38.207Z,99.90
2019-05-26T20:09:19.059Z,99.90
2019-05-26T20:11:50.772Z,99.90
2019-05-26T20:14:19.710Z,99.90
2019-05-26T20:16:48.288Z,99.90
2019-05-26T20:19:16.815Z,99.90
2019-05-26T20:21:45.399Z,99.90
2019-05-26T20:24:14.795Z,99.90
2019-05-26T20:26:53.531Z,99.90
2019-05-26T20:29:22.640Z,99.90
2019-05-26T20:31:51.469Z,99.90
2019-05-26T20:34:27.969Z,99.90
2019-05-26T20:36:58.803Z,99.90
2019-05-26T20:39:27.069Z,99.90
2019-05-26T20:41:55.864Z,99.90
2019-05-26T20:44:24.495Z,99.90
2019-05-26T20:46:53.046Z,99.90
2019-05-26T20:49:25.219Z,99.90
2019-05-26T20:51:54.033Z,99.90
2019-05-26T20:54:22.607Z,99.90
2019-05-26T20:56:51.098Z,99.90
2019-05-26T20:59:21.392Z,99.90
2019-05-26T21:01:52.551Z,99.90
2019-05-26T21:04:23.700Z,99.90
2019-05-26T21:06:52.091Z,99.90
2019-05-26T21:09:20.618Z,99.90
2019-05-26T21:11:49.110Z,99.90
2019-05-26T21:14:17.504Z,99.90
2019-05-26T21:16:45.922Z,99.90
2019-05-26T21:19:14.494Z,99.90
2019-05-26T21:21:42.950Z,99.90
2019-05-26T21:24:11.386Z,99.90
2019-05-26T21:26:39.848Z,99.90
2019-05-26T21:29:08.261Z,99.90
2019-05-26T21:31:36.655Z,99.90
2019-05-26T21:34:05.090Z,99.90
2019-05-26T21:36:33.484Z,99.90
2019-05-26T21:39:01.981Z,99.90
2019-05-26T21:41:30.430Z,99.90
2019-05-26T21:43:58.850Z,99.90
2019-05-26T21:46:27.258Z,99.90
2019-05-26T21:48:56.302Z,99.90
2019-05-26T21:51:24.953Z,99.90
2019-05-26T21:53:53.434Z,99.90
2019-05-26T21:56:22.186Z,99.90
2019-05-26T21:58:50.862Z,99.90
2019-05-26T22:01:19.329Z,99.90
2019-05-26T22:03:47.725Z,99.90
2019-05-26T22:06:19.694Z,99.90
2019-05-26T22:08:46.250Z,99.90
2019-05-26T22:11:14.655Z,99.90
2019-05-26T22:13:43.318Z,99.90
2019-05-26T22:16:11.724Z,99.90
2019-05-26T22:18:40.150Z,99.90
2019-05-26T22:21:08.557Z,99.90
2019-05-26T22:23:37.203Z,99.90
2019-05-26T22:26:05.593Z,99.90
2019-05-26T22:28:34.006Z,99.90
2019-05-26T22:31:02.633Z,99.90
2019-05-26T22:33:31.036Z,99.90
2019-05-26T22:35:59.447Z,99.90
2019-05-26T22:38:27.927Z,99.90
2019-05-26T22:40:56.339Z,99.90
2019-05-26T22:43:24.993Z,99.90
2019-05-26T22:45:53.837Z,99.90
2019-05-26T22:48:22.510Z,99.90
2019-05-26T22:50:51.163Z,99.90
2019-05-26T22:53:19.823Z,99.90
2019-05-26T22:55:48.239Z,99.90
2019-05-26T22:58:16.683Z,99.90
2019-05-26T23:00:45.350Z,99.90
2019-05-26T23:03:13.772Z,99.90
2019-05-26T23:05:42.303Z,99.90
2019-05-26T23:08:10.985Z,99.90
2019-05-26T23:10:39.404Z,99.90
2019-05-26T23:13:07.818Z,99.90
2019-05-26T23:15:36.458Z,99.90
2019-05-26T23:18:05.104Z,99.90
2019-05-26T23:20:33.509Z,99.90
2019-05-26T23:23:01.922Z,99.90
2019-05-26T23:25:30.336Z,99.90
2019-05-26T23:27:58.713Z,99.90
2019-05-26T23:30:27.113Z,99.90
2019-05-26T23:32:55.748Z,99.90
2019-05-26T23:35:24.389Z,99.90
2019-05-26T23:37:53.026Z,99.90
2019-05-26T23:40:21.671Z,99.90
2019-05-26T23:42:50.071Z,99.90
2019-05-26T23:45:18.477Z,99.90
2019-05-26T23:47:47.113Z,99.90
2019-05-26T23:50:15.890Z,99.90
2019-05-26T23:52:44.286Z,99.90
2019-05-26T23:55:13.131Z,99.90
2019-05-26T23:57:41.536Z,99.90
